createdAt,value
2022-12-13T00:05:17.371Z,-3.06
2022-12-13T00:11:40.176Z,-3.04
2022-12-13T00:18:00.160Z,-3.09
2022-12-13T00:24:23.210Z,-3.16
2022-12-13T00:30:43.336Z,-3.2
2022-12-13T00:37:06.172Z,-3.28
2022-12-13T00:43:26.167Z,-3.37
2022-12-13T00:49:49.203Z,-3.43
2022-12-13T00:56:09.170Z,-3.49
2022-12-13T01:02:32.227Z,-3.46
2022-12-13T01:08:52.171Z,-3.44
2022-12-13T01:15:15.462Z,-3.5
2022-12-13T01:21:35.199Z,-3.51
2022-12-13T01:27:58.231Z,-3.53
2022-12-13T01:34:18.273Z,-3.58
2022-12-13T01:40:41.210Z,-3.64
2022-12-13T01:47:01.189Z,-3.66
2022-12-13T01:53:24.210Z,-3.72
2022-12-13T01:59:44.217Z,-3.77
2022-12-13T02:06:07.159Z,-3.84
2022-12-13T02:12:29.336Z,-3.9
2022-12-13T02:18:50.218Z,-3.96
2022-12-13T02:25:10.230Z,-4.04
2022-12-13T02:31:33.232Z,-4.1
2022-12-13T02:37:53.227Z,-4.11
2022-12-13T02:44:22.559Z,-4.17
2022-12-13T02:50:36.446Z,-4.24
2022-12-13T02:56:59.170Z,-4.28
2022-12-13T03:03:19.313Z,-4.29
2022-12-13T03:09:42.185Z,-4.28
2022-12-13T03:16:02.199Z,-4.27
2022-12-13T03:22:25.170Z,-4.31
2022-12-13T03:28:45.294Z,-4.39
2022-12-13T03:35:21.772Z,-4.47
2022-12-13T03:41:28.231Z,-4.52
2022-12-13T03:47:51.198Z,-4.54
2022-12-13T03:54:11.220Z,-4.58
2022-12-13T04:00:34.207Z,-4.47
2022-12-13T04:16:05.137Z,-4.05
2022-12-13T04:22:25.162Z,-3.91
2022-12-13T04:28:54.180Z,-3.79
2022-12-13T04:35:08.165Z,-3.73
2022-12-13T04:41:33.898Z,-3.7
2022-12-13T04:47:51.213Z,-3.76
2022-12-13T04:54:23.807Z,-3.84
2022-12-13T05:00:35.236Z,-3.92
2022-12-13T05:06:58.207Z,-3.98
2022-12-13T05:13:18.205Z,-3.97
2022-12-13T05:19:41.144Z,-4.03
2022-12-13T05:26:01.217Z,-4.1
2022-12-13T05:32:24.321Z,-4.14
2022-12-13T05:38:44.236Z,-4.07
2022-12-13T05:45:07.225Z,-3.98
2022-12-13T05:51:27.203Z,-3.93
2022-12-13T05:57:51.184Z,-3.89
2022-12-13T06:04:10.239Z,-3.75
2022-12-13T06:10:34.521Z,-3.67
2022-12-13T06:16:53.322Z,-3.56
2022-12-13T06:23:16.213Z,-3.49
2022-12-13T06:29:36.300Z,-3.47
2022-12-13T06:35:59.220Z,-3.52
2022-12-13T06:42:21.408Z,-3.65
2022-12-13T06:48:42.187Z,-3.71
2022-12-13T06:55:02.191Z,-3.79
2022-12-13T07:01:25.326Z,-3.84
2022-12-13T07:07:45.183Z,-3.93
2022-12-13T07:14:08.294Z,-4.06
2022-12-13T07:20:28.235Z,-4.1
2022-12-13T07:26:51.219Z,-4.05
2022-12-13T07:33:11.183Z,-4.05
2022-12-13T07:39:34.145Z,-4
2022-12-13T07:45:54.360Z,-3.9
2022-12-13T07:52:17.246Z,-3.83
2022-12-13T07:58:37.294Z,-3.83
2022-12-13T08:05:00.274Z,-3.92
2022-12-13T08:11:20.282Z,-3.9
2022-12-13T08:17:43.268Z,-3.87
2022-12-13T08:24:03.202Z,-3.89
2022-12-13T08:30:26.148Z,-3.85
2022-12-13T08:36:46.242Z,-3.76
2022-12-13T08:43:09.180Z,-3.62
2022-12-13T08:49:29.265Z,-3.45
2022-12-13T08:55:52.223Z,-3.27
2022-12-13T09:19:40.773Z,-2.92
2022-12-13T09:26:05.067Z,-2.73
2022-12-13T09:32:23.471Z,-2.54
2022-12-13T09:38:43.451Z,-2.38
2022-12-13T09:45:06.177Z,-2.14
2022-12-13T09:51:39.560Z,-1.9
2022-12-13T09:57:49.313Z,-1.73
2022-12-13T10:04:09.405Z,-1.59
2022-12-13T10:10:32.228Z,-1.44
2022-12-13T10:16:52.364Z,-1.28
2022-12-13T10:23:33.664Z,-1.13
2022-12-13T10:29:35.192Z,-0.95
2022-12-13T10:35:58.260Z,-0.75
2022-12-13T10:42:22.245Z,-0.66
2022-12-13T10:48:41.160Z,-0.45
2022-12-13T10:55:01.477Z,-0.21
2022-12-13T11:01:24.281Z,-0.01
2022-12-13T11:07:44.173Z,0.14
2022-12-13T11:14:07.260Z,0.24
2022-12-13T11:20:27.172Z,0.36
2022-12-13T11:26:53.917Z,0.56
2022-12-13T11:33:10.166Z,0.53
2022-12-13T11:39:33.292Z,0.55
2022-12-13T11:45:53.272Z,0.65
2022-12-13T11:52:16.266Z,0.9
2022-12-13T11:59:01.629Z,1.03
2022-12-13T12:05:00.991Z,1.01
2022-12-13T12:11:19.323Z,1.18
2022-12-13T12:17:42.486Z,1.35
2022-12-13T12:24:02.185Z,1.47
2022-12-13T12:30:25.207Z,1.6
2022-12-13T12:36:45.492Z,1.69
2022-12-13T12:43:16.380Z,1.46
2022-12-13T12:49:28.256Z,1.17
2022-12-13T12:55:51.201Z,0.81
2022-12-13T13:02:11.164Z,0.6
2022-12-13T13:08:34.281Z,0.45
2022-12-13T13:14:54.199Z,0.47
2022-12-13T13:21:17.204Z,0.55
2022-12-13T13:27:37.298Z,0.62
2022-12-13T13:34:00.182Z,0.62
2022-12-13T13:40:30.002Z,0.57
2022-12-13T13:46:43.244Z,0.49
2022-12-13T13:53:03.151Z,0.47
2022-12-13T13:59:27.147Z,0.4
2022-12-13T14:16:20.953Z,0.34
2022-12-13T14:22:43.199Z,0.27
2022-12-13T14:29:03.273Z,0.22
2022-12-13T14:35:26.786Z,0.2
2022-12-13T14:41:46.158Z,0.13
2022-12-13T14:48:09.285Z,0.03
2022-12-13T14:54:29.181Z,-0.04
2022-12-13T15:00:52.151Z,-0.1
2022-12-13T15:07:12.168Z,-0.14
2022-12-13T15:13:35.186Z,-0.21
2022-12-13T15:19:55.531Z,-0.31
2022-12-13T15:26:27.905Z,-0.4
2022-12-13T15:32:38.222Z,-0.47
2022-12-13T15:39:01.153Z,-0.55
2022-12-13T15:45:21.178Z,-0.6
2022-12-13T15:51:44.403Z,-0.62
2022-12-13T15:58:04.369Z,-0.72
2022-12-13T16:04:27.323Z,-0.79
2022-12-13T16:10:47.454Z,-0.84
2022-12-13T16:17:10.199Z,-0.92
2022-12-13T16:23:30.368Z,-0.95
2022-12-13T16:29:53.314Z,-1
2022-12-13T16:36:13.200Z,-1.03
2022-12-13T16:42:36.333Z,-1.06
2022-12-13T16:48:56.167Z,-1.13
2022-12-13T16:55:19.221Z,-1.18
2022-12-13T17:01:39.307Z,-1.21
2022-12-13T17:08:02.217Z,-1.26
2022-12-13T17:14:22.146Z,-1.3
2022-12-13T17:20:45.167Z,-1.36
2022-12-13T17:27:05.184Z,-1.41
2022-12-13T17:33:28.449Z,-1.48
2022-12-13T17:39:48.163Z,-1.52
2022-12-13T17:46:11.240Z,-1.52
2022-12-13T17:52:31.131Z,-1.52
2022-12-13T17:58:54.294Z,-1.56
2022-12-13T18:05:17.812Z,-1.58
2022-12-13T18:11:37.201Z,-1.58
2022-12-13T18:18:12.853Z,-1.6
2022-12-13T18:24:20.360Z,-1.65
2022-12-13T18:30:40.178Z,-1.67
2022-12-13T18:37:03.180Z,-1.68
2022-12-13T18:43:23.318Z,-1.69
2022-12-13T18:49:54.685Z,-1.71
2022-12-13T18:56:06.228Z,-1.77
2022-12-13T19:02:34.171Z,-1.8
2022-12-13T19:19:58.222Z,-1.83
2022-12-13T19:26:21.141Z,-1.87
2022-12-13T19:32:41.175Z,-1.91
2022-12-13T19:39:04.195Z,-1.93
2022-12-13T19:45:24.168Z,-1.97
2022-12-13T19:51:47.246Z,-1.99
2022-12-13T19:58:07.157Z,-2.02
2022-12-13T20:04:30.227Z,-2.04
2022-12-13T20:10:50.167Z,-2.04
2022-12-13T20:17:13.191Z,-2.01
2022-12-13T20:23:33.276Z,-1.96
2022-12-13T20:29:56.200Z,-1.93
2022-12-13T20:36:24.923Z,-1.94
2022-12-13T20:42:39.160Z,-1.98
2022-12-13T20:48:59.134Z,-1.98
2022-12-13T20:55:22.199Z,-2.01
2022-12-13T21:01:42.249Z,-2.08
2022-12-13T21:08:05.193Z,-2.2
2022-12-13T21:14:25.222Z,-2.27
2022-12-13T21:20:48.142Z,-2.29
2022-12-13T21:27:08.180Z,-2.34
2022-12-13T21:33:31.160Z,-2.37
2022-12-13T21:39:51.154Z,-2.42
2022-12-13T21:46:14.218Z,-2.42
2022-12-13T21:52:34.197Z,-2.34
2022-12-13T21:58:57.238Z,-2.27
2022-12-13T22:05:17.191Z,-2.26
2022-12-13T22:11:40.194Z,-2.27
2022-12-13T22:18:00.529Z,-2.32
2022-12-13T22:24:23.200Z,-2.35
2022-12-13T22:30:43.268Z,-2.35
2022-12-13T22:37:06.239Z,-2.37
2022-12-13T22:43:26.189Z,-2.37
2022-12-13T22:49:49.374Z,-2.34
2022-12-13T22:56:09.206Z,-2.31
2022-12-13T23:20:27.279Z,-2.3
2022-12-13T23:26:47.140Z,-2.33
2022-12-13T23:33:10.162Z,-2.33
2022-12-13T23:39:30.232Z,-2.34
2022-12-13T23:45:53.201Z,-2.32
2022-12-13T23:52:13.141Z,-2.27
2022-12-13T23:58:36.216Z,-2.23
